sensor_id;sensor_type;location;lat;lon;timestamp;pressure;altitude;pressure_sealevel;temperature;humidity
82555;BME280;72219;48.186;11.554;2024-03-02T00:00:19;94706.47;;;16.26;45.43
82555;BME280;72219;48.186;11.554;2024-03-02T00:02:48;94691.59;;;16.13;45.25
82555;BME280;72219;48.186;11.554;2024-03-02T00:05:19;94713.88;;;16.29;45.25
82555;BME280;72219;48.186;11.554;2024-03-02T00:07:52;94671.50;;;16.07;45.33
82555;BME280;72219;48.186;11.554;2024-03-02T00:10:20;94684.78;;;16.19;45.39
82555;BME280;72219;48.186;11.554;2024-03-02T00:12:51;94710.88;;;16.25;45.54
82555;BME280;72219;48.186;11.554;2024-03-02T00:15:45;94709.88;;;16.26;45.27
82555;BME280;72219;48.186;11.554;2024-03-02T00:18:16;94667.69;;;16.03;45.43
82555;BME280;72219;48.186;11.554;2024-03-02T00:20:46;94689.38;;;16.17;45.48
82555;BME280;72219;48.186;11.554;2024-03-02T00:23:16;94697.41;;;16.15;45.77
82555;BME280;72219;48.186;11.554;2024-03-02T00:25:50;94690.00;;;16.12;45.70
82555;BME280;72219;48.186;11.554;2024-03-02T00:28:21;94695.63;;;16.22;45.34
82555;BME280;72219;48.186;11.554;2024-03-02T00:30:59;94686.78;;;16.23;45.53
82555;BME280;72219;48.186;11.554;2024-03-02T00:33:27;94664.88;;;16.04;45.15
82555;BME280;72219;48.186;11.554;2024-03-02T00:35:54;94684.78;;;16.25;45.55
82555;BME280;72219;48.186;11.554;2024-03-02T00:38:19;94687.41;;;16.25;45.20
82555;BME280;72219;48.186;11.554;2024-03-02T00:40:46;94684.16;;;16.23;44.95
82555;BME280;72219;48.186;11.554;2024-03-02T00:46:15;94622.13;;;15.85;45.15
82555;BME280;72219;48.186;11.554;2024-03-02T00:48:55;94661.88;;;16.07;45.69
82555;BME280;72219;48.186;11.554;2024-03-02T00:51:34;94653.84;;;16.02;45.48
82555;BME280;72219;48.186;11.554;2024-03-02T00:54:07;94655.06;;;16.00;45.52
82555;BME280;72219;48.186;11.554;2024-03-02T00:56:34;94659.25;;;16.14;45.38
82555;BME280;72219;48.186;11.554;2024-03-02T00:59:02;94670.72;;;16.20;45.51
82555;BME280;72219;48.186;11.554;2024-03-02T01:01:28;94677.34;;;16.16;45.65
82555;BME280;72219;48.186;11.554;2024-03-02T01:03:53;94684.97;;;16.17;45.14
82555;BME280;72219;48.186;11.554;2024-03-02T01:06:19;94637.34;;;15.88;45.53
82555;BME280;72219;48.186;11.554;2024-03-02T01:08:50;94663.09;;;16.05;45.36
82555;BME280;72219;48.186;11.554;2024-03-02T01:11:22;94643.41;;;15.95;45.43
82555;BME280;72219;48.186;11.554;2024-03-02T01:13:49;94688.19;;;16.19;45.41
82555;BME280;72219;48.186;11.554;2024-03-02T01:16:23;94659.44;;;15.99;45.26
82555;BME280;72219;48.186;11.554;2024-03-02T01:18:48;94641.19;;;15.92;45.50
82555;BME280;72219;48.186;11.554;2024-03-02T01:21:14;94664.69;;;16.06;45.08
82555;BME280;72219;48.186;11.554;2024-03-02T01:23:46;94685.56;;;16.19;45.61
82555;BME280;72219;48.186;11.554;2024-03-02T01:26:19;94637.75;;;15.85;45.33
82555;BME280;72219;48.186;11.554;2024-03-02T01:28:46;94669.91;;;16.06;45.02
82555;BME280;72219;48.186;11.554;2024-03-02T01:31:12;94686.56;;;16.18;45.39
82555;BME280;72219;48.186;11.554;2024-03-02T01:33:40;94659.06;;;15.95;45.25
82555;BME280;72219;48.186;11.554;2024-03-02T01:36:06;94679.13;;;16.08;44.90
82555;BME280;72219;48.186;11.554;2024-03-02T01:38:33;94674.13;;;16.07;45.26
82555;BME280;72219;48.186;11.554;2024-03-02T01:40:59;94649.81;;;15.93;45.15
82555;BME280;72219;48.186;11.554;2024-03-02T01:43:25;94669.50;;;16.02;45.28
82555;BME280;72219;48.186;11.554;2024-03-02T01:45:54;94674.75;;;16.09;45.14
82555;BME280;72219;48.186;11.554;2024-03-02T01:48:19;94677.53;;;16.07;45.28
82555;BME280;72219;48.186;11.554;2024-03-02T01:50:46;94670.31;;;16.09;45.07
82555;BME280;72219;48.186;11.554;2024-03-02T01:53:11;94624.66;;;15.72;45.32
82555;BME280;72219;48.186;11.554;2024-03-02T01:55:44;94637.75;;;15.85;45.40
82555;BME280;72219;48.186;11.554;2024-03-02T01:58:12;94672.31;;;16.14;45.54
82555;BME280;72219;48.186;11.554;2024-03-02T02:00:38;94676.75;;;16.13;45.49
82555;BME280;72219;48.186;11.554;2024-03-02T02:03:11;94639.19;;;15.94;45.29
82555;BME280;72219;48.186;11.554;2024-03-02T02:05:41;94670.31;;;16.09;45.40
82555;BME280;72219;48.186;11.554;2024-03-02T02:08:07;94661.69;;;16.09;45.10
82555;BME280;72219;48.186;11.554;2024-03-02T02:10:32;94653.88;;;16.09;45.41
82555;BME280;72219;48.186;11.554;2024-03-02T02:12:58;94628.13;;;15.92;45.48
82555;BME280;72219;48.186;11.554;2024-03-02T02:15:29;94651.03;;;16.10;45.25
82555;BME280;72219;48.186;11.554;2024-03-02T02:17:58;94616.91;;;15.92;45.29
82555;BME280;72219;48.186;11.554;2024-03-02T02:20:25;94616.50;;;15.88;45.18
82555;BME280;72219;48.186;11.554;2024-03-02T02:23:04;94655.84;;;16.07;45.58
82555;BME280;72219;48.186;11.554;2024-03-02T02:25:40;94644.81;;;16.05;45.51
82555;BME280;72219;48.186;11.554;2024-03-02T02:28:07;94644.81;;;16.05;45.51
82555;BME280;72219;48.186;11.554;2024-03-02T02:30:34;94632.16;;;16.02;45.49
82555;BME280;72219;48.186;11.554;2024-03-02T02:33:06;94641.59;;;16.09;45.19
82555;BME280;72219;48.186;11.554;2024-03-02T02:35:35;94630.38;;;15.95;45.36
82555;BME280;72219;48.186;11.554;2024-03-02T02:38:02;94648.03;;;16.07;45.18
82555;BME280;72219;48.186;11.554;2024-03-02T02:40:29;94624.13;;;15.83;45.01
82555;BME280;72219;48.186;11.554;2024-03-02T02:43:02;94655.06;;;16.06;45.55
82555;BME280;72219;48.186;11.554;2024-03-02T02:45:33;94653.44;;;16.12;45.28
82555;BME280;72219;48.186;11.554;2024-03-02T02:48:05;94655.66;;;16.08;45.30
82555;BME280;72219;48.186;11.554;2024-03-02T02:50:34;94611.63;;;15.78;45.07
82555;BME280;72219;48.186;11.554;2024-03-02T02:53:01;94605.41;;;15.73;45.48
82555;BME280;72219;48.186;11.554;2024-03-02T02:55:34;94638.78;;;16.04;45.12
82555;BME280;72219;48.186;11.554;2024-03-02T02:58:00;94609.03;;;15.72;45.46
82555;BME280;72219;48.186;11.554;2024-03-02T03:00:28;94632.56;;;15.92;44.99
82555;BME280;72219;48.186;11.554;2024-03-02T03:02:55;94617.50;;;15.80;45.08
82555;BME280;72219;48.186;11.554;2024-03-02T03:05:23;94653.63;;;15.97;44.98
82555;BME280;72219;48.186;11.554;2024-03-02T03:07:51;94653.84;;;16.02;45.13
82555;BME280;72219;48.186;11.554;2024-03-02T03:10:20;94636.16;;;15.91;45.41
82555;BME280;72219;48.186;11.554;2024-03-02T03:12:50;94669.69;;;16.01;44.98
82555;BME280;72219;48.186;11.554;2024-03-02T03:15:21;94660.06;;;16.01;45.33
82555;BME280;72219;48.186;11.554;2024-03-02T03:17:47;94611.84;;;15.70;45.36
82555;BME280;72219;48.186;11.554;2024-03-02T03:20:14;94658.25;;;16.02;45.05
82555;BME280;72219;48.186;11.554;2024-03-02T03:22:41;94659.06;;;16.02;45.05
82555;BME280;72219;48.186;11.554;2024-03-02T03:25:09;94654.84;;;16.08;45.22
82555;BME280;72219;48.186;11.554;2024-03-02T03:27:36;94665.50;;;16.06;44.92
82555;BME280;72219;48.186;11.554;2024-03-02T03:30:01;94652.03;;;15.96;45.13
82555;BME280;72219;48.186;11.554;2024-03-02T03:32:28;94651.41;;;16.01;44.97
82555;BME280;72219;48.186;11.554;2024-03-02T03:34:53;94624.94;;;15.90;45.60
82555;BME280;72219;48.186;11.554;2024-03-02T03:37:21;94654.22;;;15.99;45.51
82555;BME280;72219;48.186;11.554;2024-03-02T03:39:48;94640.38;;;15.92;45.51
82555;BME280;72219;48.186;11.554;2024-03-02T03:42:14;94656.03;;;15.98;45.37
82555;BME280;72219;48.186;11.554;2024-03-02T03:44:41;94607.03;;;15.74;45.40
82555;BME280;72219;48.186;11.554;2024-03-02T03:47:08;94636.97;;;15.91;45.18
82555;BME280;72219;48.186;11.554;2024-03-02T03:49:33;94644.19;;;15.89;44.90
82555;BME280;72219;48.186;11.554;2024-03-02T03:51:59;94607.63;;;15.76;44.85
82555;BME280;72219;48.186;11.554;2024-03-02T03:54:25;94652.03;;;15.96;44.99
82555;BME280;72219;48.186;11.554;2024-03-02T03:56:50;94653.84;;;16.02;45.10
82555;BME280;72219;48.186;11.554;2024-03-02T03:59:16;94613.66;;;15.70;45.19
82555;BME280;72219;48.186;11.554;2024-03-02T04:01:42;94655.44;;;15.96;45.27
82555;BME280;72219;48.186;11.554;2024-03-02T04:04:09;94656.25;;;15.97;44.97
82555;BME280;72219;48.186;11.554;2024-03-02T04:06:42;94661.06;;;16.00;45.32
82555;BME280;72219;48.186;11.554;2024-03-02T04:09:08;94664.28;;;16.02;44.89
82555;BME280;72219;48.186;11.554;2024-03-02T04:11:35;94659.63;;;15.91;45.24
82555;BME280;72219;48.186;11.554;2024-03-02T04:14:02;94636.09;;;15.71;45.27
82555;BME280;72219;48.186;11.554;2024-03-02T04:16:27;94658.22;;;15.88;45.38
82555;BME280;72219;48.186;11.554;2024-03-02T04:18:54;94681.53;;;15.96;45.50
82555;BME280;72219;48.186;11.554;2024-03-02T04:21:19;94665.66;;;15.85;45.31
82555;BME280;72219;48.186;11.554;2024-03-02T04:23:45;94680.94;;;15.94;45.42
82555;BME280;72219;48.186;11.554;2024-03-02T04:26:13;94639.31;;;15.73;44.81
82555;BME280;72219;48.186;11.554;2024-03-02T04:28:43;94676.28;;;15.90;45.38
82555;BME280;72219;48.186;11.554;2024-03-02T04:31:10;94678.72;;;15.91;45.46
82555;BME280;72219;48.186;11.554;2024-03-02T04:33:36;94669.47;;;15.82;45.06
82555;BME280;72219;48.186;11.554;2024-03-02T04:36:01;94688.34;;;15.91;44.95
82555;BME280;72219;48.186;11.554;2024-03-02T04:38:35;94668.44;;;15.76;44.97
82555;BME280;72219;48.186;11.554;2024-03-02T04:41:04;94685.72;;;15.84;45.26
82555;BME280;72219;48.186;11.554;2024-03-02T04:43:31;94653.13;;;15.67;45.16
82555;BME280;72219;48.186;11.554;2024-03-02T04:46:00;94655.53;;;15.61;45.14
82555;BME280;72219;48.186;11.554;2024-03-02T04:48:28;94672.22;;;15.74;45.10
82555;BME280;72219;48.186;11.554;2024-03-02T04:50:55;94703.78;;;15.92;45.37
82555;BME280;72219;48.186;11.554;2024-03-02T04:53:23;94674.44;;;15.77;45.33
82555;BME280;72219;48.186;11.554;2024-03-02T04:55:50;94677.63;;;15.79;45.23
82555;BME280;72219;48.186;11.554;2024-03-02T04:58:34;94683.25;;;15.76;45.14
82555;BME280;72219;48.186;11.554;2024-03-02T05:00:59;94693.16;;;15.87;45.12
82555;BME280;72219;48.186;11.554;2024-03-02T05:03:27;94649.72;;;15.59;44.91
82555;BME280;72219;48.186;11.554;2024-03-02T05:06:06;94708.41;;;15.90;44.87
82555;BME280;72219;48.186;11.554;2024-03-02T05:08:31;94669.41;;;15.69;45.35
82555;BME280;72219;48.186;11.554;2024-03-02T05:10:58;94709.63;;;15.94;45.25
82555;BME280;72219;48.186;11.554;2024-03-02T05:13:43;94716.25;;;15.97;44.89
82555;BME280;72219;48.186;11.554;2024-03-02T05:16:10;94661.56;;;15.62;45.11
82555;BME280;72219;48.186;11.554;2024-03-02T05:18:38;94703.13;;;15.77;45.24
82555;BME280;72219;48.186;11.554;2024-03-02T05:21:06;94718.03;;;15.90;45.05
82555;BME280;72219;48.186;11.554;2024-03-02T05:23:33;94665.75;;;15.56;45.07
82555;BME280;72219;48.186;11.554;2024-03-02T05:26:00;94716.84;;;15.92;45.29
82555;BME280;72219;48.186;11.554;2024-03-02T05:28:26;94713.22;;;15.87;44.99
82555;BME280;72219;48.186;11.554;2024-03-02T05:30:52;94703.13;;;15.77;45.33
82555;BME280;72219;48.186;11.554;2024-03-02T05:33:18;94721.66;;;15.89;45.40
82555;BME280;72219;48.186;11.554;2024-03-02T05:35:44;94674.19;;;15.65;45.23
82555;BME280;72219;48.186;11.554;2024-03-02T05:38:13;94691.88;;;15.70;45.16
82555;BME280;72219;48.186;11.554;2024-03-02T05:40:38;94707.16;;;15.79;45.25
82555;BME280;72219;48.186;11.554;2024-03-02T05:43:08;94685.06;;;15.69;45.34
82555;BME280;72219;48.186;11.554;2024-03-02T05:45:35;94694.09;;;15.73;45.08
82555;BME280;72219;48.186;11.554;2024-03-02T05:48:01;94704.31;;;15.74;45.40
82555;BME280;72219;48.186;11.554;2024-03-02T05:50:28;94726.69;;;15.90;45.10
82555;BME280;72219;48.186;11.554;2024-03-02T05:52:55;94719.63;;;15.84;45.15
82555;BME280;72219;48.186;11.554;2024-03-02T05:55:22;94719.22;;;15.80;45.02
82555;BME280;72219;48.186;11.554;2024-03-02T05:57:47;94685.44;;;15.66;45.24
82555;BME280;72219;48.186;11.554;2024-03-02T06:00:24;94718.41;;;15.80;45.32
82555;BME280;72219;48.186;11.554;2024-03-02T06:02:51;94719.03;;;15.82;44.94
82555;BME280;72219;48.186;11.554;2024-03-02T06:05:16;94663.50;;;15.46;45.65
82555;BME280;72219;48.186;11.554;2024-03-02T06:07:43;94703.69;;;15.72;45.02
82555;BME280;72219;48.186;11.554;2024-03-02T06:10:09;94728.09;;;15.93;45.13
82555;BME280;72219;48.186;11.554;2024-03-02T06:12:36;94730.06;;;15.91;45.04
82555;BME280;72219;48.186;11.554;2024-03-02T06:15:09;94681.41;;;15.56;44.82
82555;BME280;72219;48.186;11.554;2024-03-02T06:17:39;94718.41;;;15.80;45.27
82555;BME280;72219;48.186;11.554;2024-03-02T06:20:10;94711.53;;;15.72;45.54
82555;BME280;72219;48.186;11.554;2024-03-02T06:22:42;94686.81;;;15.61;44.87
82555;BME280;72219;48.186;11.554;2024-03-02T06:25:08;94704.38;;;15.81;45.10
82555;BME280;72219;48.186;11.554;2024-03-02T06:27:34;94685.81;;;15.62;44.83
82555;BME280;72219;48.186;11.554;2024-03-02T06:30:00;94686.81;;;15.61;45.24
82555;BME280;72219;48.186;11.554;2024-03-02T06:32:29;94714.81;;;15.88;44.91
82555;BME280;72219;48.186;11.554;2024-03-02T06:34:58;94676.38;;;15.61;44.79
82555;BME280;72219;48.186;11.554;2024-03-02T06:37:23;94692.69;;;15.77;44.63
82555;BME280;72219;48.186;11.554;2024-03-02T06:39:49;94718.44;;;15.93;44.61
82555;BME280;72219;48.186;11.554;2024-03-02T06:42:17;94714.22;;;15.92;44.47
82555;BME280;72219;48.186;11.554;2024-03-02T06:44:43;94707.78;;;15.88;44.42
82555;BME280;72219;48.186;11.554;2024-03-02T06:47:11;94685.06;;;15.75;44.68
82555;BME280;72219;48.186;11.554;2024-03-02T06:49:36;94726.91;;;16.02;44.77
82555;BME280;72219;48.186;11.554;2024-03-02T06:52:03;94704.81;;;15.91;44.68
82555;BME280;72219;48.186;11.554;2024-03-02T06:54:29;94678.03;;;15.76;44.52
82555;BME280;72219;48.186;11.554;2024-03-02T06:56:54;94701.78;;;15.94;44.34
82555;BME280;72219;48.186;11.554;2024-03-02T06:59:19;94716.66;;;16.01;44.60
82555;BME280;72219;48.186;11.554;2024-03-02T07:01:48;94724.31;;;16.09;44.57
82555;BME280;72219;48.186;11.554;2024-03-02T07:04:19;94728.50;;;16.10;44.08
82555;BME280;72219;48.186;11.554;2024-03-02T07:06:44;94719.91;;;16.09;44.01
82555;BME280;72219;48.186;11.554;2024-03-02T07:09:12;94680.69;;;15.83;44.44
82555;BME280;72219;48.186;11.554;2024-03-02T07:11:37;94693.97;;;16.01;44.26
82555;BME280;72219;48.186;11.554;2024-03-02T07:14:04;94692.34;;;15.93;44.11
82555;BME280;72219;48.186;11.554;2024-03-02T07:16:29;94696.59;;;15.94;44.23
82555;BME280;72219;48.186;11.554;2024-03-02T07:18:59;94710.88;;;16.12;44.22
82555;BME280;72219;48.186;11.554;2024-03-02T07:21:26;94726.75;;;16.17;44.30
82555;BME280;72219;48.186;11.554;2024-03-02T07:23:54;94696.78;;;15.93;44.00
82555;BME280;72219;48.186;11.554;2024-03-02T07:26:20;94705.84;;;16.04;44.22
82555;BME280;72219;48.186;11.554;2024-03-02T07:28:46;94722.91;;;16.13;44.49
82555;BME280;72219;48.186;11.554;2024-03-02T07:31:15;94718.91;;;16.17;44.05
82555;BME280;72219;48.186;11.554;2024-03-02T07:33:41;94730.75;;;16.20;43.69
82555;BME280;72219;48.186;11.554;2024-03-02T07:36:07;94696.59;;;15.94;44.30
82555;BME280;72219;48.186;11.554;2024-03-02T07:38:32;94724.50;;;16.07;44.30
82555;BME280;72219;48.186;11.554;2024-03-02T07:40:59;94692.97;;;15.89;43.79
82555;BME280;72219;48.186;11.554;2024-03-02T07:43:25;94723.94;;;16.19;44.18
82555;BME280;72219;48.186;11.554;2024-03-02T07:45:53;94742.00;;;16.27;43.97
82555;BME280;72219;48.186;11.554;2024-03-02T07:48:18;94692.78;;;15.97;43.77
82555;BME280;72219;48.186;11.554;2024-03-02T07:50:43;94734.59;;;16.24;44.01
82555;BME280;72219;48.186;11.554;2024-03-02T07:53:09;94739.00;;;16.30;43.65
82555;BME280;72219;48.186;11.554;2024-03-02T07:55:36;94745.63;;;16.39;43.92
82555;BME280;72219;48.186;11.554;2024-03-02T07:58:03;94721.91;;;16.27;43.86
82555;BME280;72219;48.186;11.554;2024-03-02T08:00:29;94714.28;;;16.26;43.30
82555;BME280;72219;48.186;11.554;2024-03-02T08:02:55;94740.84;;;16.50;43.72
82555;BME280;72219;48.186;11.554;2024-03-02T08:05:21;94736.81;;;16.47;43.09
82555;BME280;72219;48.186;11.554;2024-03-02T08:07:47;94740.81;;;16.43;43.14
82555;BME280;72219;48.186;11.554;2024-03-02T08:10:13;94728.19;;;16.40;43.04
82555;BME280;72219;48.186;11.554;2024-03-02T08:12:41;94753.47;;;16.59;43.28
82555;BME280;72219;48.186;11.554;2024-03-02T08:15:08;94713.09;;;16.28;43.10
82555;BME280;72219;48.186;11.554;2024-03-02T08:17:34;94751.06;;;16.58;43.46
82555;BME280;72219;48.186;11.554;2024-03-02T08:20:00;94728.56;;;16.50;43.30
82555;BME280;72219;48.186;11.554;2024-03-02T08:22:25;94760.72;;;16.64;43.30
82555;BME280;72219;48.186;11.554;2024-03-02T08:24:51;94726.94;;;16.49;43.16
82555;BME280;72219;48.186;11.554;2024-03-02T08:27:18;94746.66;;;16.58;42.99
82555;BME280;72219;48.186;11.554;2024-03-02T08:29:44;94755.09;;;16.67;43.00
82555;BME280;72219;48.186;11.554;2024-03-02T08:32:12;94763.16;;;16.72;43.16
82555;BME280;72219;48.186;11.554;2024-03-02T08:34:38;94754.50;;;16.72;43.03
82555;BME280;72219;48.186;11.554;2024-03-02T08:37:04;94705.69;;;16.45;43.28
82555;BME280;72219;48.186;11.554;2024-03-02T08:39:31;94752.28;;;16.82;43.19
82555;BME280;72219;48.186;11.554;2024-03-02T08:41:58;94741.44;;;16.78;42.81
82555;BME280;72219;48.186;11.554;2024-03-02T08:44:23;94752.88;;;16.77;43.16
82555;BME280;72219;48.186;11.554;2024-03-02T08:46:52;94742.63;;;16.76;42.76
82555;BME280;72219;48.186;11.554;2024-03-02T08:49:19;94751.31;;;16.90;43.14
82555;BME280;72219;48.186;11.554;2024-03-02T08:51:44;94753.94;;;16.90;42.96
82555;BME280;72219;48.186;11.554;2024-03-02T08:54:20;94741.66;;;16.90;42.46
82555;BME280;72219;48.186;11.554;2024-03-02T08:56:45;94757.31;;;17.04;42.45
82555;BME280;72219;48.186;11.554;2024-03-02T08:59:11;94732.59;;;16.86;42.78
82555;BME280;72219;48.186;11.554;2024-03-02T09:01:37;94751.91;;;16.98;43.11
82555;BME280;72219;48.186;11.554;2024-03-02T09:04:18;94710.69;;;16.80;42.53
82555;BME280;72219;48.186;11.554;2024-03-02T09:06:44;94752.69;;;17.06;42.25
82555;BME280;72219;48.186;11.554;2024-03-02T09:09:09;94734.22;;;17.01;42.42
82555;BME280;72219;48.186;11.554;2024-03-02T09:11:37;94747.44;;;17.12;42.31
82555;BME280;72219;48.186;11.554;2024-03-02T09:14:03;94762.72;;;17.29;42.56
82555;BME280;72219;48.186;11.554;2024-03-02T09:16:30;94767.31;;;17.34;42.33
82555;BME280;72219;48.186;11.554;2024-03-02T09:18:57;94767.50;;;17.39;42.20
82555;BME280;72219;48.186;11.554;2024-03-02T09:21:23;94760.69;;;17.38;42.17
82555;BME280;72219;48.186;11.554;2024-03-02T09:23:51;94758.25;;;17.36;42.37
82555;BME280;72219;48.186;11.554;2024-03-02T09:26:18;94767.50;;;17.39;42.20
82555;BME280;72219;48.186;11.554;2024-03-02T09:28:45;94764.50;;;17.35;42.28
82555;BME280;72219;48.186;11.554;2024-03-02T09:31:11;94775.34;;;17.52;42.09
82555;BME280;72219;48.186;11.554;2024-03-02T09:33:37;94769.03;;;17.66;41.67
82555;BME280;72219;48.186;11.554;2024-03-02T09:36:04;94753.34;;;17.60;41.65
82555;BME280;72219;48.186;11.554;2024-03-02T09:38:32;94762.59;;;17.62;41.85
82555;BME280;72219;48.186;11.554;2024-03-02T09:40:58;94689.09;;;17.25;41.83
82555;BME280;72219;48.186;11.554;2024-03-02T09:43:23;94718.00;;;17.51;41.60
82555;BME280;72219;48.186;11.554;2024-03-02T09:45:50;94718.78;;;17.58;41.67
82555;BME280;72219;48.186;11.554;2024-03-02T09:48:16;94749.66;;;17.81;41.77
82555;BME280;72219;48.186;11.554;2024-03-02T09:50:43;94740.00;;;17.81;41.88
82555;BME280;72219;48.186;11.554;2024-03-02T09:53:14;94722.72;;;17.74;41.56
82555;BME280;72219;48.186;11.554;2024-03-02T09:55:40;94741.56;;;17.89;41.31
82555;BME280;72219;48.186;11.554;2024-03-02T09:58:10;94748.41;;;17.97;41.59
82555;BME280;72219;48.186;11.554;2024-03-02T10:00:36;94731.31;;;17.88;41.53
82555;BME280;72219;48.186;11.554;2024-03-02T10:03:02;94749.19;;;17.97;41.90
82555;BME280;72219;48.186;11.554;2024-03-02T10:05:27;94750.25;;;17.96;41.82
82555;BME280;72219;48.186;11.554;2024-03-02T10:08:01;94747.59;;;18.03;41.63
82555;BME280;72219;48.186;11.554;2024-03-02T10:10:40;94729.06;;;18.05;41.36
82555;BME280;72219;48.186;11.554;2024-03-02T10:13:07;94735.88;;;18.06;41.57
82555;BME280;72219;48.186;11.554;2024-03-02T10:15:33;94733.59;;;18.16;41.52
82555;BME280;72219;48.186;11.554;2024-03-02T10:18:00;94736.66;;;18.13;41.38
82555;BME280;72219;48.186;11.554;2024-03-02T10:20:26;94729.00;;;18.11;41.39
82555;BME280;72219;48.186;11.554;2024-03-02T10:23:11;94738.41;;;18.19;41.50
82555;BME280;72219;48.186;11.554;2024-03-02T10:25:37;94735.41;;;18.22;41.64
82555;BME280;72219;48.186;11.554;2024-03-02T10:28:03;94720.69;;;18.21;41.20
82555;BME280;72219;48.186;11.554;2024-03-02T10:30:31;94733.53;;;18.29;41.43
82555;BME280;72219;48.186;11.554;2024-03-02T10:32:56;94717.63;;;18.24;41.33
82555;BME280;72219;48.186;11.554;2024-03-02T10:35:26;94731.28;;;18.33;41.53
82555;BME280;72219;48.186;11.554;2024-03-02T10:37:52;94722.34;;;18.41;41.28
82555;BME280;72219;48.186;11.554;2024-03-02T10:40:21;94726.38;;;18.43;41.40
82555;BME280;72219;48.186;11.554;2024-03-02T10:42:47;94714.44;;;18.47;41.30
82555;BME280;72219;48.186;11.554;2024-03-02T10:45:15;94719.28;;;18.51;41.23
82555;BME280;72219;48.186;11.554;2024-03-02T10:47:42;94711.78;;;18.54;41.22
82555;BME280;72219;48.186;11.554;2024-03-02T10:50:08;94699.28;;;18.56;41.04
82555;BME280;72219;48.186;11.554;2024-03-02T10:52:37;94705.91;;;18.59;41.32
82555;BME280;72219;48.186;11.554;2024-03-02T10:55:03;94694.78;;;18.63;41.11
82555;BME280;72219;48.186;11.554;2024-03-02T10:57:41;94694.78;;;18.63;41.24
82555;BME280;72219;48.186;11.554;2024-03-02T11:00:11;94684.13;;;18.58;41.36
82555;BME280;72219;48.186;11.554;2024-03-02T11:02:46;94696.41;;;18.64;41.24
82555;BME280;72219;48.186;11.554;2024-03-02T11:05:21;94695.38;;;18.65;41.24
82555;BME280;72219;48.186;11.554;2024-03-02T11:07:51;94684.31;;;18.63;41.40
82555;BME280;72219;48.186;11.554;2024-03-02T11:10:19;94674.22;;;18.67;41.39
82555;BME280;72219;48.186;11.554;2024-03-02T11:12:56;94678.22;;;18.70;41.42
82555;BME280;72219;48.186;11.554;2024-03-02T11:15:26;94671.16;;;18.70;41.44
82555;BME280;72219;48.186;11.554;2024-03-02T11:17:53;94664.16;;;18.64;41.64
82555;BME280;72219;48.186;11.554;2024-03-02T11:20:19;94670.13;;;18.71;41.57
82555;BME280;72219;48.186;11.554;2024-03-02T11:22:45;94656.25;;;18.71;41.44
82555;BME280;72219;48.186;11.554;2024-03-02T11:25:24;94658.19;;;18.75;41.56
82555;BME280;72219;48.186;11.554;2024-03-02T11:33:07;94646.28;;;18.79;41.45
82555;BME280;72219;48.186;11.554;2024-03-02T11:35:42;94626.16;;;18.73;41.63
82555;BME280;72219;48.186;11.554;2024-03-02T11:38:09;94632.16;;;18.80;41.39
82555;BME280;72219;48.186;11.554;2024-03-02T11:40:35;94626.69;;;18.82;41.52
82555;BME280;72219;48.186;11.554;2024-03-02T11:43:02;94637.94;;;18.89;41.57
82555;BME280;72219;48.186;11.554;2024-03-02T11:45:28;94638.09;;;18.94;41.53
82555;BME280;72219;48.186;11.554;2024-03-02T11:47:54;94623.38;;;18.93;41.52
82555;BME280;72219;48.186;11.554;2024-03-02T11:53:07;94620.44;;;19.02;41.54
82555;BME280;72219;48.186;11.554;2024-03-02T11:55:36;94603.78;;;18.96;41.55
82555;BME280;72219;48.186;11.554;2024-03-02T11:58:05;94619.81;;;19.06;41.37
82555;BME280;72219;48.186;11.554;2024-03-02T12:00:30;94599.78;;;18.93;41.54
82555;BME280;72219;48.186;11.554;2024-03-02T12:03:10;94615.81;;;19.04;41.60
82555;BME280;72219;48.186;11.554;2024-03-02T12:05:37;94610.13;;;19.07;41.71
82555;BME280;72219;48.186;11.554;2024-03-02T12:08:04;94602.25;;;19.07;41.72
82555;BME280;72219;48.186;11.554;2024-03-02T12:10:33;94603.41;;;19.11;41.61
82555;BME280;72219;48.186;11.554;2024-03-02T12:13:00;94601.75;;;19.16;41.45
82555;BME280;72219;48.186;11.554;2024-03-02T12:15:26;94585.56;;;19.20;41.39
82555;BME280;72219;48.186;11.554;2024-03-02T12:17:54;94581.72;;;19.22;41.39
82555;BME280;72219;48.186;11.554;2024-03-02T12:20:20;94588.81;;;19.33;41.36
82555;BME280;72219;48.186;11.554;2024-03-02T12:22:45;94588.38;;;19.37;41.20
82555;BME280;72219;48.186;11.554;2024-03-02T12:25:11;94574.91;;;19.33;41.42
82555;BME280;72219;48.186;11.554;2024-03-02T12:27:39;94581.44;;;19.42;41.15
82555;BME280;72219;48.186;11.554;2024-03-02T12:30:05;94571.06;;;19.47;41.12
82555;BME280;72219;48.186;11.554;2024-03-02T12:32:33;94566.63;;;19.48;40.86
82555;BME280;72219;48.186;11.554;2024-03-02T12:35:00;94569.41;;;19.53;41.05
82555;BME280;72219;48.186;11.554;2024-03-02T12:37:26;94564.72;;;19.55;40.83
82555;BME280;72219;48.186;11.554;2024-03-02T12:39:53;94562.91;;;19.56;41.12
82555;BME280;72219;48.186;11.554;2024-03-02T12:42:24;94554.66;;;19.52;41.18
82555;BME280;72219;48.186;11.554;2024-03-02T12:44:52;94548.97;;;19.55;41.08
82555;BME280;72219;48.186;11.554;2024-03-02T12:47:19;94545.19;;;19.51;41.13
82555;BME280;72219;48.186;11.554;2024-03-02T12:49:45;94537.91;;;19.53;41.09
82555;BME280;72219;48.186;11.554;2024-03-02T12:52:14;94548.88;;;19.62;41.25
82555;BME280;72219;48.186;11.554;2024-03-02T12:54:40;94534.38;;;19.59;41.04
82555;BME280;72219;48.186;11.554;2024-03-02T12:57:05;94533.50;;;19.65;41.14
82555;BME280;72219;48.186;11.554;2024-03-02T12:59:31;94535.09;;;19.66;41.04
82555;BME280;72219;48.186;11.554;2024-03-02T13:01:56;94525.38;;;19.67;41.21
82555;BME280;72219;48.186;11.554;2024-03-02T13:04:24;94512.97;;;19.62;41.11